Terminal Aerodrome Forecast
Issued by NWS

Home | Current Version | Previous Version | Graphics & Text | Print | Product List | Glossary On
Versions: 1 2 3 4 5 6 7 8 9 10 11 12 13 14 15 16 17 18 19 20 21
101
FTUS43 KGRB 231120
TAFAUW
TAF
KAUW 231120Z 2312/2412 16005KT P6SM SCT250 WS007/20035KT
     FM231500 18013G24KT P6SM SCT150 BKN250
     FM232300 18010KT P6SM SCT100 BKN200
     FM240200 17008KT P6SM VCSH SCT040 BKN080 PROB30 2403/2407 3SM
      TSRA BKN040CB
     FM240800 22005KT 5SM BR VCSH SCT010 BKN020=

USA.gov is the U.S. government's official web portal to all federal, state and local government web resources and services.